createdAt,value
2022-09-30T00:01:08.686Z,92951.41
2022-09-30T00:03:37.006Z,92963.34
2022-09-30T00:06:08.730Z,92961.00
2022-09-30T00:08:38.645Z,92969.47
2022-09-30T00:11:17.864Z,92980.50
2022-09-30T00:13:47.234Z,92973.25
2022-09-30T00:16:15.394Z,92985.56
2022-09-30T00:18:43.518Z,92989.56
2022-09-30T00:21:11.764Z,92986.03
2022-09-30T00:23:39.554Z,92989.19
2022-09-30T00:26:09.654Z,92993.66
2022-09-30T00:28:36.306Z,92991.34
2022-09-30T00:31:06.607Z,92995.75
2022-09-30T00:33:34.055Z,92993.41
2022-09-30T00:36:01.044Z,92987.63
2022-09-30T00:38:27.963Z,92983.81
2022-09-30T00:40:56.476Z,92981.03
2022-09-30T00:43:42.297Z,92984.13
2022-09-30T00:46:27.835Z,92984.13
2022-09-30T00:48:55.404Z,92980.69
2022-09-30T00:51:31.152Z,92981.66
2022-09-30T00:54:00.906Z,92990.75
2022-09-30T00:56:34.843Z,92981.88
2022-09-30T00:59:11.344Z,92990.28
2022-09-30T01:01:40.318Z,92999.38
2022-09-30T01:04:13.224Z,93007.00
2022-09-30T01:06:41.154Z,93010.31
2022-09-30T01:09:08.428Z,93004.72
2022-09-30T01:11:35.124Z,93007.56
2022-09-30T01:14:27.883Z,93012.25
2022-09-30T01:17:11.342Z,92999.31
2022-09-30T01:19:58.344Z,93000.66
2022-09-30T01:22:33.355Z,92994.19
2022-09-30T01:25:35.827Z,92994.38
2022-09-30T01:28:20.834Z,92997.19
2022-09-30T01:31:05.770Z,93004.66
2022-09-30T01:33:52.822Z,93003.81
2022-09-30T01:36:49.605Z,93003.94
2022-09-30T01:39:39.904Z,93001.91
2022-09-30T01:42:32.445Z,92999.25
2022-09-30T01:45:13.380Z,92993.69
2022-09-30T01:47:43.913Z,92989.56
2022-09-30T01:50:41.086Z,92993.81
2022-09-30T01:53:19.824Z,93000.56
2022-09-30T01:56:02.209Z,92991.75
2022-09-30T01:59:01.034Z,92993.31
2022-09-30T02:01:44.521Z,92987.84
2022-09-30T02:04:17.145Z,92992.16
2022-09-30T02:06:46.404Z,92993.91
2022-09-30T02:09:22.649Z,92992.31
2022-09-30T02:11:49.504Z,92992.97
2022-09-30T02:14:34.701Z,92991.59
2022-09-30T02:17:16.192Z,92986.34
2022-09-30T02:19:51.217Z,92993.56
2022-09-30T02:22:26.328Z,92987.13
2022-09-30T02:24:57.093Z,92991.63
2022-09-30T02:27:32.604Z,92990.44
2022-09-30T02:30:01.193Z,92988.69
2022-09-30T02:32:32.127Z,92997.00
2022-09-30T02:35:12.165Z,93002.38
2022-09-30T02:37:42.291Z,93005.81
2022-09-30T02:40:12.198Z,93015.41
2022-09-30T02:42:39.629Z,93013.59
2022-09-30T02:45:10.525Z,93022.41
2022-09-30T02:47:53.832Z,93028.78
2022-09-30T02:50:39.215Z,93027.31
2022-09-30T02:53:14.925Z,93035.66
2022-09-30T02:56:09.200Z,93041.88
2022-09-30T02:58:39.616Z,93044.19
2022-09-30T03:01:08.273Z,93044.47
2022-09-30T03:03:43.833Z,93044.47
2022-09-30T03:06:11.164Z,93055.94
2022-09-30T03:08:38.185Z,93055.88
2022-09-30T03:11:05.389Z,93058.97
2022-09-30T03:13:56.022Z,93071.97
2022-09-30T03:17:00.143Z,93077.16
2022-09-30T03:19:51.333Z,93076.63
2022-09-30T03:22:31.425Z,93075.91
2022-09-30T03:25:20.005Z,93079.28
2022-09-30T03:27:53.678Z,93076.13
2022-09-30T03:30:27.054Z,93086.47
2022-09-30T03:32:53.724Z,93086.75
2022-09-30T03:35:39.073Z,93085.19
2022-09-30T03:38:37.663Z,93087.97
2022-09-30T03:41:13.052Z,93100.47
2022-09-30T03:43:50.275Z,93107.84
2022-09-30T03:46:42.309Z,93113.81
2022-09-30T03:49:13.433Z,93114.28
2022-09-30T03:51:41.006Z,93127.56
2022-09-30T03:54:13.313Z,93132.22
2022-09-30T03:56:43.538Z,93137.41
2022-09-30T03:59:20.693Z,93137.31
2022-09-30T04:01:47.477Z,93138.59
2022-09-30T04:04:14.554Z,93141.91
2022-09-30T04:06:41.416Z,93137.31
2022-09-30T04:09:08.653Z,93144.59
2022-09-30T04:11:35.463Z,93144.97
2022-09-30T04:14:02.496Z,93141.03
2022-09-30T04:16:29.488Z,93144.66
2022-09-30T04:18:56.938Z,93146.22
2022-09-30T04:21:23.776Z,93147.78
2022-09-30T04:23:50.534Z,93150.16
2022-09-30T04:26:20.091Z,93153.53
2022-09-30T04:28:46.895Z,93158.81
2022-09-30T04:31:14.694Z,93157.47
2022-09-30T04:33:41.388Z,93157.53
2022-09-30T04:36:07.992Z,93171.22
2022-09-30T04:38:34.703Z,93172.94
2022-09-30T04:41:05.834Z,93166.72
2022-09-30T04:43:32.867Z,93178.34
2022-09-30T04:45:59.728Z,93171.81
2022-09-30T04:48:28.083Z,93189.44
2022-09-30T04:50:54.703Z,93180.00
2022-09-30T04:53:21.279Z,93175.84
2022-09-30T04:55:48.085Z,93180.16
2022-09-30T04:58:15.328Z,93175.28
2022-09-30T05:00:41.991Z,93182.06
2022-09-30T05:03:08.684Z,93186.31
2022-09-30T05:05:35.437Z,93189.75
2022-09-30T05:08:05.670Z,93193.13
2022-09-30T05:10:32.840Z,93187.94
2022-09-30T05:12:59.559Z,93204.03
2022-09-30T05:15:26.953Z,93210.19
2022-09-30T05:17:53.913Z,93214.09
2022-09-30T05:20:21.526Z,93213.88
2022-09-30T05:22:48.629Z,93218.59
2022-09-30T05:25:15.510Z,93223.16
2022-09-30T05:27:42.346Z,93234.06
2022-09-30T05:30:09.481Z,93237.38
2022-09-30T05:32:36.260Z,93240.34
2022-09-30T05:35:03.681Z,93245.38
2022-09-30T05:37:30.593Z,93244.97
2022-09-30T05:39:57.464Z,93243.56
2022-09-30T05:42:24.198Z,93246.78
2022-09-30T05:44:50.950Z,93244.28
2022-09-30T05:47:17.723Z,93247.53
2022-09-30T05:49:45.577Z,93245.06
2022-09-30T05:52:14.952Z,93252.06
2022-09-30T05:54:42.577Z,93253.88
2022-09-30T05:57:09.558Z,93256.22
2022-09-30T05:59:37.830Z,93256.56
2022-09-30T06:02:05.554Z,93260.00
2022-09-30T06:04:32.282Z,93263.31
2022-09-30T06:06:58.993Z,93269.13
2022-09-30T06:09:25.996Z,93254.56
2022-09-30T06:11:53.138Z,93258.28
2022-09-30T06:14:20.056Z,93260.97
2022-09-30T06:16:47.362Z,93262.63
2022-09-30T06:19:14.627Z,93263.16
2022-09-30T06:21:41.332Z,93268.50
2022-09-30T06:24:13.100Z,93271.25
2022-09-30T06:26:39.735Z,93269.28
2022-09-30T06:29:06.497Z,93271.97
2022-09-30T06:31:33.305Z,93278.75
2022-09-30T06:34:00.513Z,93273.56
2022-09-30T06:36:29.222Z,93281.38
2022-09-30T06:38:55.909Z,93291.78
2022-09-30T06:41:27.644Z,93290.50
2022-09-30T06:44:03.081Z,93286.56
2022-09-30T06:46:31.513Z,93294.53
2022-09-30T06:49:14.562Z,93294.66
2022-09-30T06:51:42.312Z,93302.53
2022-09-30T06:54:09.419Z,93303.16
2022-09-30T06:56:37.030Z,93307.34
2022-09-30T06:59:04.644Z,93305.75
2022-09-30T07:01:31.543Z,93307.19
2022-09-30T07:03:58.295Z,93308.13
2022-09-30T07:06:29.261Z,93312.69
2022-09-30T07:08:57.023Z,93313.94
2022-09-30T07:11:24.915Z,93321.34
2022-09-30T07:13:51.879Z,93334.16
2022-09-30T07:16:19.978Z,93336.41
2022-09-30T07:18:47.163Z,93346.56
2022-09-30T07:21:16.319Z,93332.97
2022-09-30T07:23:48.194Z,93334.63
2022-09-30T07:26:16.920Z,93339.66
2022-09-30T07:28:44.005Z,93335.56
2022-09-30T07:31:33.726Z,93331.53
2022-09-30T07:34:01.655Z,93339.00
2022-09-30T07:36:33.090Z,93348.13
2022-09-30T07:39:05.989Z,93356.03
2022-09-30T07:41:36.136Z,93364.00
2022-09-30T07:44:03.260Z,93371.94
2022-09-30T07:46:32.638Z,93379.28
2022-09-30T07:49:07.719Z,93395.63
2022-09-30T07:51:37.434Z,93404.72
2022-09-30T07:54:10.433Z,93392.09
2022-09-30T07:57:08.196Z,93378.34
2022-09-30T07:59:27.535Z,93379.75
2022-09-30T08:01:54.533Z,93384.00
2022-09-30T08:04:22.665Z,93405.72
2022-09-30T08:06:53.755Z,93408.56
2022-09-30T08:09:22.528Z,93416.31
2022-09-30T08:11:49.689Z,93420.22
2022-09-30T08:14:19.004Z,93419.44
2022-09-30T08:16:45.947Z,93418.63
2022-09-30T08:19:18.717Z,93424.38
2022-09-30T08:21:46.352Z,93419.53
2022-09-30T08:24:13.681Z,93424.06
2022-09-30T08:26:41.020Z,93432.44
2022-09-30T08:29:07.724Z,93440.34
2022-09-30T08:31:34.582Z,93461.25
2022-09-30T08:34:03.248Z,93464.47
2022-09-30T08:36:30.551Z,93468.22
2022-09-30T08:38:57.721Z,93463.59
2022-09-30T08:41:42.589Z,93446.56
2022-09-30T08:44:39.087Z,93467.53
2022-09-30T08:47:25.506Z,93467.53
2022-09-30T08:50:15.037Z,93466.44
2022-09-30T08:52:49.594Z,93457.63
2022-09-30T08:55:20.908Z,93462.06
2022-09-30T08:57:48.001Z,93430.81
2022-09-30T09:00:17.446Z,93447.28
2022-09-30T09:02:49.436Z,93454.41
2022-09-30T09:05:41.936Z,93434.81
2022-09-30T09:08:22.954Z,93464.91
2022-09-30T09:11:14.095Z,93466.59
2022-09-30T09:14:04.907Z,93478.59
2022-09-30T09:16:40.152Z,93462.63
2022-09-30T09:19:16.246Z,93462.72
2022-09-30T09:21:57.845Z,93465.84
2022-09-30T09:24:44.873Z,93469.28
2022-09-30T09:27:27.017Z,93474.50
2022-09-30T09:30:06.701Z,93484.72
2022-09-30T09:32:34.444Z,93475.03
2022-09-30T09:35:10.145Z,93481.31
2022-09-30T09:38:02.985Z,93486.81
2022-09-30T09:40:45.325Z,93502.28
2022-09-30T09:43:48.355Z,93496.13
2022-09-30T09:46:50.845Z,93490.47
2022-09-30T09:49:21.010Z,93481.09
2022-09-30T09:51:59.934Z,93476.66
2022-09-30T09:54:31.285Z,93478.97
2022-09-30T09:57:18.596Z,93460.72
2022-09-30T10:00:21.886Z,93474.88
2022-09-30T10:03:20.845Z,93468.03
2022-09-30T10:06:07.675Z,93469.59
2022-09-30T10:08:36.955Z,93468.34
2022-09-30T10:11:24.473Z,93468.78
2022-09-30T10:13:53.805Z,93486.09
2022-09-30T10:16:31.257Z,93499.47
2022-09-30T10:18:59.212Z,93507.31
2022-09-30T10:21:28.314Z,93509.91
2022-09-30T10:23:55.278Z,93513.78
2022-09-30T10:26:24.829Z,93506.25
2022-09-30T10:28:55.667Z,93500.25
2022-09-30T10:31:22.373Z,93506.78
2022-09-30T10:33:56.536Z,93508.09
2022-09-30T10:36:30.928Z,93509.91
2022-09-30T10:39:06.775Z,93509.41
2022-09-30T10:41:36.330Z,93513.06
2022-09-30T10:44:06.715Z,93501.56
2022-09-30T10:46:36.970Z,93500.50
2022-09-30T10:49:10.265Z,93515.06
2022-09-30T10:51:37.105Z,93520.88
2022-09-30T10:54:05.469Z,93526.56
2022-09-30T10:56:44.146Z,93524.56
2022-09-30T10:59:35.479Z,93520.41
2022-09-30T11:02:15.179Z,93523.50
2022-09-30T11:04:48.456Z,93525.88
2022-09-30T11:07:31.315Z,93530.59
2022-09-30T11:10:08.535Z,93524.59
2022-09-30T11:12:45.360Z,93522.47
2022-09-30T11:15:18.036Z,93523.25
2022-09-30T11:17:56.707Z,93532.34
2022-09-30T11:20:36.830Z,93531.88
2022-09-30T11:23:15.736Z,93540.97
2022-09-30T11:25:42.428Z,93547.03
2022-09-30T11:28:50.995Z,93553.50
2022-09-30T11:31:41.681Z,93556.69
2022-09-30T11:34:32.914Z,93551.00
2022-09-30T11:37:16.509Z,93552.84
2022-09-30T11:39:48.964Z,93542.88
2022-09-30T11:42:40.736Z,93527.72
2022-09-30T11:45:27.149Z,93518.56
2022-09-30T11:48:36.128Z,93528.00
2022-09-30T11:51:02.726Z,93534.00
2022-09-30T11:54:07.855Z,93541.81
2022-09-30T11:56:34.565Z,93539.72
2022-09-30T11:59:04.008Z,93533.91
2022-09-30T12:01:58.730Z,93522.06
2022-09-30T12:04:41.677Z,93522.47
2022-09-30T12:07:18.247Z,93531.00
2022-09-30T12:09:49.266Z,93532.66
2022-09-30T12:12:18.061Z,93535.78
2022-09-30T12:14:55.795Z,93534.75
2022-09-30T12:17:26.965Z,93539.59
2022-09-30T12:19:55.944Z,93545.13
2022-09-30T12:22:31.433Z,93549.03
2022-09-30T12:24:58.163Z,93565.88
2022-09-30T12:27:29.425Z,93560.34
2022-09-30T12:30:19.174Z,93548.09
2022-09-30T12:33:05.305Z,93545.47
2022-09-30T12:36:17.233Z,93532.69
2022-09-30T12:39:02.487Z,93543.66
2022-09-30T12:42:00.727Z,93546.53
2022-09-30T12:44:42.384Z,93535.78
2022-09-30T12:47:46.017Z,93538.13
2022-09-30T12:50:19.285Z,93544.69
2022-09-30T12:52:46.326Z,93542.88
2022-09-30T12:55:38.467Z,93540.53
2022-09-30T12:58:05.745Z,93546.53
2022-09-30T13:00:34.959Z,93536.84
2022-09-30T13:03:15.947Z,93533.16
2022-09-30T13:05:43.769Z,93544.19
2022-09-30T13:08:25.416Z,93551.00
2022-09-30T13:11:00.289Z,93537.41
2022-09-30T13:13:31.837Z,93538.44
2022-09-30T13:16:03.741Z,93534.00
2022-09-30T13:18:30.455Z,93541.06
2022-09-30T13:20:57.816Z,93537.41
2022-09-30T13:23:40.538Z,93540.81
2022-09-30T13:26:29.181Z,93534.00
2022-09-30T13:29:01.977Z,93532.44
2022-09-30T13:31:29.408Z,93528.78
2022-09-30T13:34:02.026Z,93521.44
2022-09-30T13:36:48.955Z,93522.47
2022-09-30T13:39:24.413Z,93522.22
2022-09-30T13:42:09.513Z,93528.75
2022-09-30T13:44:57.605Z,93533.47
2022-09-30T13:47:30.218Z,93527.19
2022-09-30T13:50:23.216Z,93532.97
2022-09-30T13:52:54.614Z,93536.63
2022-09-30T13:55:34.375Z,93539.22
2022-09-30T13:58:30.894Z,93545.00
2022-09-30T14:01:21.650Z,93541.59
2022-09-30T14:04:12.405Z,93533.75
2022-09-30T14:07:03.867Z,93541.81
2022-09-30T14:09:52.237Z,93539.47
2022-09-30T14:12:53.468Z,93534.25
2022-09-30T14:15:32.025Z,93541.53
2022-09-30T14:18:23.311Z,93530.84
2022-09-30T14:21:14.347Z,93536.06
2022-09-30T14:23:41.664Z,93537.09
2022-09-30T14:26:48.986Z,93527.16
2022-09-30T14:29:43.926Z,93524.53
2022-09-30T14:32:18.995Z,93532.66
2022-09-30T14:34:49.275Z,93539.19
2022-09-30T14:37:21.786Z,93528.72
2022-09-30T14:39:49.506Z,93535.97
2022-09-30T14:42:25.066Z,93537.78
2022-09-30T14:44:52.185Z,93534.66
2022-09-30T14:47:19.557Z,93529.97
2022-09-30T14:49:46.306Z,93517.16
2022-09-30T14:52:37.087Z,93521.84
2022-09-30T14:55:04.829Z,93521.81
2022-09-30T14:57:34.295Z,93524.94
2022-09-30T15:00:28.385Z,93530.69
2022-09-30T15:02:55.247Z,93529.91
2022-09-30T15:05:21.996Z,93526.78
2022-09-30T15:07:49.268Z,93535.91
2022-09-30T15:10:24.150Z,93528.78
2022-09-30T15:12:52.075Z,93528.72
2022-09-30T15:15:37.804Z,93534.19
2022-09-30T15:18:24.175Z,93536.25
2022-09-30T15:20:54.146Z,93532.13
2022-09-30T15:23:28.649Z,93531.53
2022-09-30T15:25:55.945Z,93534.47
2022-09-30T15:28:22.675Z,93540.50
2022-09-30T15:30:52.037Z,93547.28
2022-09-30T15:33:22.384Z,93550.41
2022-09-30T15:35:49.115Z,93556.63
2022-09-30T15:38:20.793Z,93557.09
2022-09-30T15:40:57.244Z,93556.59
2022-09-30T15:43:32.974Z,93556.34
2022-09-30T15:46:16.764Z,93546.84
2022-09-30T15:48:44.955Z,93555.16
2022-09-30T15:51:39.421Z,93555.66
2022-09-30T15:54:15.106Z,93553.78
2022-09-30T15:56:43.222Z,93553.22
2022-09-30T15:59:11.596Z,93547.03
2022-09-30T16:01:38.244Z,93548.03
2022-09-30T16:04:17.327Z,93549.03
2022-09-30T16:06:48.005Z,93555.63
2022-09-30T16:09:20.047Z,93555.16
2022-09-30T16:11:56.617Z,93561.44
2022-09-30T16:14:26.629Z,93567.09
2022-09-30T16:16:56.410Z,93555.53
2022-09-30T16:19:24.665Z,93577.53
2022-09-30T16:21:52.896Z,93569.16
2022-09-30T16:24:22.596Z,93578.31
2022-09-30T16:26:53.964Z,93577.41
2022-09-30T16:29:21.395Z,93581.00
2022-09-30T16:31:50.337Z,93577.66
2022-09-30T16:34:28.306Z,93584.69
2022-09-30T16:37:03.806Z,93578.41
2022-09-30T16:39:30.480Z,93591.19
2022-09-30T16:41:57.128Z,93581.28
2022-09-30T16:44:24.505Z,93586.69
2022-09-30T16:46:52.015Z,93590.03
2022-09-30T16:49:19.814Z,93593.16
2022-09-30T16:51:46.534Z,93596.41
2022-09-30T16:54:13.612Z,93606.94
2022-09-30T16:56:40.306Z,93600.53
2022-09-30T16:59:18.231Z,93600.44
2022-09-30T17:01:45.024Z,93614.03
2022-09-30T17:04:14.167Z,93608.75
2022-09-30T17:06:43.824Z,93621.28
2022-09-30T17:09:10.513Z,93617.66
2022-09-30T17:11:38.382Z,93619.22
2022-09-30T17:14:05.667Z,93616.91
2022-09-30T17:16:33.233Z,93617.03
2022-09-30T17:19:00.136Z,93621.88
2022-09-30T17:21:27.305Z,93623.03
2022-09-30T17:23:57.988Z,93626.63
2022-09-30T17:26:24.743Z,93621.41
2022-09-30T17:28:51.354Z,93635.09
2022-09-30T17:31:18.075Z,93648.31
2022-09-30T17:33:44.877Z,93644.34
2022-09-30T17:36:13.283Z,93643.81
2022-09-30T17:38:40.372Z,93647.28
2022-09-30T17:41:26.347Z,93652.56
2022-09-30T17:43:52.951Z,93656.13
2022-09-30T17:46:23.196Z,93656.03
2022-09-30T17:48:51.265Z,93642.28
2022-09-30T17:51:18.282Z,93654.22
2022-09-30T17:53:45.454Z,93651.16
2022-09-30T17:56:20.060Z,93650.00
2022-09-30T17:58:49.070Z,93651.44
2022-09-30T18:01:17.672Z,93648.19
2022-09-30T18:03:45.955Z,93666.69
2022-09-30T18:06:14.661Z,93661.84
2022-09-30T18:08:41.471Z,93655.69
2022-09-30T18:11:08.406Z,93667.75
2022-09-30T18:13:35.262Z,93660.19
2022-09-30T18:16:06.358Z,93659.16
2022-09-30T18:18:34.466Z,93665.78
2022-09-30T18:21:01.184Z,93659.31
2022-09-30T18:23:27.853Z,93652.28
2022-09-30T18:25:56.196Z,93657.19
2022-09-30T18:28:23.393Z,93662.31
2022-09-30T18:30:50.238Z,93665.00
2022-09-30T18:33:18.904Z,93669.66
2022-09-30T18:35:46.562Z,93670.13
2022-09-30T18:38:14.929Z,93668.78
2022-09-30T18:40:43.403Z,93672.84
2022-09-30T18:43:13.593Z,93672.50
2022-09-30T18:45:40.533Z,93668.25
2022-09-30T18:48:07.850Z,93677.66
2022-09-30T18:50:34.765Z,93674.25
2022-09-30T18:53:09.085Z,93677.38
2022-09-30T18:55:38.548Z,93682.31
2022-09-30T18:58:05.908Z,93677.81
2022-09-30T19:00:32.749Z,93665.16
2022-09-30T19:02:59.571Z,93682.47
2022-09-30T19:05:26.632Z,93667.06
2022-09-30T19:07:54.815Z,93682.06
2022-09-30T19:10:21.957Z,93676.00
2022-09-30T19:12:49.714Z,93677.25
2022-09-30T19:15:16.464Z,93668.31
2022-09-30T19:17:44.158Z,93672.03
2022-09-30T19:20:12.045Z,93673.28
2022-09-30T19:22:38.671Z,93665.47
2022-09-30T19:25:06.644Z,93674.31
2022-09-30T19:27:36.314Z,93674.31
2022-09-30T19:30:03.713Z,93669.56
2022-09-30T19:32:34.538Z,93664.38
2022-09-30T19:35:06.391Z,93664.59
2022-09-30T19:37:33.584Z,93667.94
2022-09-30T19:40:06.773Z,93661.31
2022-09-30T19:42:39.089Z,93662.97
2022-09-30T19:45:06.929Z,93649.94
2022-09-30T19:47:34.568Z,93644.19
2022-09-30T19:50:01.216Z,93642.94
2022-09-30T19:52:28.120Z,93646.88
2022-09-30T19:54:58.658Z,93653.66
2022-09-30T19:57:33.911Z,93646.25
2022-09-30T20:00:05.029Z,93652.25
2022-09-30T20:02:32.469Z,93648.13
2022-09-30T20:05:00.499Z,93648.38
2022-09-30T20:07:28.291Z,93646.78
2022-09-30T20:09:54.913Z,93646.56
2022-09-30T20:12:21.533Z,93630.19
2022-09-30T20:15:06.388Z,93631.56
2022-09-30T20:17:32.972Z,93624.78
2022-09-30T20:20:18.198Z,93620.22
2022-09-30T20:22:44.764Z,93617.22
2022-09-30T20:25:11.403Z,93617.94
2022-09-30T20:27:42.947Z,93623.28
2022-09-30T20:30:10.142Z,93631.09
2022-09-30T20:32:36.685Z,93624.56
2022-09-30T20:35:03.328Z,93624.25
2022-09-30T20:37:29.965Z,93624.44
2022-09-30T20:39:57.741Z,93615.50
2022-09-30T20:42:25.703Z,93607.25
2022-09-30T20:44:52.327Z,93613.47
2022-09-30T20:47:20.907Z,93615.66
2022-09-30T20:49:47.501Z,93618.81
2022-09-30T20:52:15.157Z,93609.84
2022-09-30T20:54:41.797Z,93606.97
2022-09-30T20:57:08.375Z,93611.84
2022-09-30T20:59:34.983Z,93613.56
2022-09-30T21:02:01.723Z,93611.34
2022-09-30T21:04:28.634Z,93618.34
2022-09-30T21:06:55.257Z,93605.44
2022-09-30T21:09:21.928Z,93615.00
2022-09-30T21:11:48.569Z,93623.03
2022-09-30T21:14:18.074Z,93620.34
2022-09-30T21:16:44.761Z,93627.34
2022-09-30T21:19:11.395Z,93619.69
2022-09-30T21:21:37.999Z,93631.19
2022-09-30T21:24:04.560Z,93631.44
2022-09-30T21:26:31.228Z,93638.91
2022-09-30T21:28:57.974Z,93647.31
2022-09-30T21:31:27.306Z,93638.94
2022-09-30T21:33:56.559Z,93639.84
2022-09-30T21:36:24.374Z,93641.88
2022-09-30T21:38:52.064Z,93651.47
2022-09-30T21:41:19.797Z,93661.31
2022-09-30T21:43:47.066Z,93660.41
2022-09-30T21:46:15.387Z,93660.88
2022-09-30T21:48:42.697Z,93657.72
2022-09-30T21:51:11.605Z,93653.25
2022-09-30T21:53:39.436Z,93662.63
2022-09-30T21:56:06.957Z,93659.81
2022-09-30T21:58:33.967Z,93645.13
2022-09-30T22:01:02.840Z,93649.31
2022-09-30T22:03:30.865Z,93652.22
2022-09-30T22:05:58.737Z,93656.41
2022-09-30T22:08:26.466Z,93645.81
2022-09-30T22:10:53.209Z,93650.44
2022-09-30T22:13:19.861Z,93663.63
2022-09-30T22:15:47.299Z,93657.47
2022-09-30T22:18:18.985Z,93652.69
2022-09-30T22:20:47.233Z,93660.72
2022-09-30T22:23:15.014Z,93662.84
2022-09-30T22:25:41.774Z,93661.25
2022-09-30T22:28:08.429Z,93655.84
2022-09-30T22:30:35.400Z,93654.59
2022-09-30T22:33:20.608Z,93654.38
2022-09-30T22:36:05.470Z,93650.44
2022-09-30T22:38:32.036Z,93660.69
2022-09-30T22:40:59.734Z,93672.31
2022-09-30T22:43:27.237Z,93677.19
2022-09-30T22:46:08.310Z,93669.97
2022-09-30T22:48:35.378Z,93677.06
2022-09-30T22:51:04.685Z,93663.75
2022-09-30T22:53:31.244Z,93655.16
2022-09-30T22:55:57.936Z,93660.13
2022-09-30T22:58:24.580Z,93669.16
2022-09-30T23:00:58.884Z,93664.31
2022-09-30T23:03:26.045Z,93672.66
2022-09-30T23:06:00.363Z,93674.34
2022-09-30T23:08:34.124Z,93684.75
2022-09-30T23:11:00.873Z,93682.44
2022-09-30T23:13:30.732Z,93680.00
2022-09-30T23:15:58.577Z,93683.69
2022-09-30T23:18:26.473Z,93697.50
2022-09-30T23:20:57.275Z,93697.06
2022-09-30T23:23:24.234Z,93698.84
2022-09-30T23:26:08.672Z,93702.59
2022-09-30T23:28:35.697Z,93701.66
2022-09-30T23:31:04.069Z,93703.00
2022-09-30T23:33:30.884Z,93702.44
2022-09-30T23:36:00.092Z,93711.16
2022-09-30T23:38:26.888Z,93715.13
2022-09-30T23:40:59.057Z,93707.19
2022-09-30T23:43:34.233Z,93698.38
2022-09-30T23:46:01.631Z,93706.94
2022-09-30T23:48:28.529Z,93708.19
2022-09-30T23:50:55.293Z,93707.97
2022-09-30T23:53:23.077Z,93717.22
2022-09-30T23:56:05.865Z,93724.81
2022-09-30T23:58:33.506Z,93725.72
